Аэропорт
Душанбе (UTDD)

 UTDD / DYU
ЗЦ Центральная Азия
Душанбе (UTDD)
Душанбе (UTDD)
 38.54330, 68.82500  / 2575 ft

 UTDD 111630Z VRB01MPS 7000 NSC 06/02 Q1023 R09/CLRD// NOSIG RMK QFE698/0931
 UTDD 111200Z 1113/1201 VRB02MPS 5000 BR FU SCT066CB BKN100 TEMPO 1113/1119 3100 BR FU TEMPO 1119/1201 1000 BR FU
UTDD charts eff 02.02.17
показать схемы
Название сценария Тип сценария Flight Simulator 9 Flight Simulator X Prepar3D v2 Prepar3D v3 Prepar3D v4 xPlane
Recommended scenery for FS9 бесплатный
Recommended scenery for FSX бесплатный
Recommended scenery for xPlane бесплатный


2018 © VATRUS division